Time;durP1;ratioP1;P1;durP2;ratioP2;P2;SDS_P1;SDS_P2;PMS_P1;PMS_P2;Temp;Humidity;BMP_temperature;BMP_pressure;BME280_temperature;BME280_humidity;BME280_pressure;Samples;Min_cycle;Max_cycle;Signal;HPM_P1;HPM_P2
2020/02/25 00:01:07;;;;;;;2;1.2;;;;;;;;;;;;;
2020/02/25 00:03:40;;;;;;;1.6;1.3;;;;;;;;;;;;;
2020/02/25 00:23:11;;;;;;;2;1.4;;;;;;;;;;;;;
2020/02/25 00:28:34;;;;;;;2.1;1.4;;;;;;;;;;;;;
2020/02/25 00:31:08;;;;;;;1.9;1.6;;;;;;;;;;;;;
2020/02/25 00:33:44;;;;;;;1.5;1.4;;;;;;;;;;;;;
2020/02/25 00:36:17;;;;;;;2;1.6;;;;;;;;;;;;;
2020/02/25 00:38:50;;;;;;;1.7;1.4;;;;;;;;;;;;;
2020/02/25 00:41:22;;;;;;;1.8;1.5;;;;;;;;;;;;;
2020/02/25 00:43:56;;;;;;;1.7;1.5;;;;;;;;;;;;;
2020/02/25 00:46:28;;;;;;;2;1.5;;;;;;;;;;;;;
2020/02/25 00:48:59;;;;;;;1.5;1.2;;;;;;;;;;;;;
2020/02/25 00:51:31;;;;;;;2.1;1.6;;;;;;;;;;;;;
2020/02/25 00:54:03;;;;;;;1.3;1.2;;;;;;;;;;;;;
2020/02/25 00:56:35;;;;;;;2.5;1.6;;;;;;;;;;;;;
2020/02/25 00:59:07;;;;;;;1.9;1.3;;;;;;;;;;;;;
2020/02/25 01:01:39;;;;;;;1.8;1.4;;;;;;;;;;;;;
2020/02/25 01:04:13;;;;;;;2.7;1.4;;;;;;;;;;;;;
2020/02/25 01:06:48;;;;;;;1.5;1.4;;;;;;;;;;;;;
2020/02/25 01:09:20;;;;;;;2.9;1.4;;;;;;;;;;;;;
2020/02/25 01:12:07;;;;;;;2.8;1.5;;;;;;;;;;;;;
2020/02/25 01:15:03;;;;;;;2.3;1.6;;;;;;;;;;;;;
2020/02/25 01:17:36;;;;;;;2.1;1.7;;;;;;;;;;;;;
2020/02/25 01:20:10;;;;;;;1.7;1.3;;;;;;;;;;;;;
2020/02/25 01:22:53;;;;;;;1.6;1.5;;;;;;;;;;;;;
2020/02/25 01:25:27;;;;;;;2.3;1.5;;;;;;;;;;;;;
2020/02/25 01:28:00;;;;;;;2.4;1.8;;;;;;;;;;;;;
2020/02/25 01:30:32;;;;;;;2.4;1.5;;;;;;;;;;;;;
2020/02/25 01:33:04;;;;;;;2.1;1.5;;;;;;;;;;;;;
2020/02/25 01:35:37;;;;;;;2.1;1.7;;;;;;;;;;;;;
2020/02/25 01:38:09;;;;;;;1.9;1.6;;;;;;;;;;;;;
2020/02/25 01:40:42;;;;;;;2.4;1.8;;;;;;;;;;;;;
2020/02/25 01:43:14;;;;;;;2.3;1.6;;;;;;;;;;;;;
2020/02/25 01:45:47;;;;;;;2;1.7;;;;;;;;;;;;;
2020/02/25 01:48:20;;;;;;;2.4;1.5;;;;;;;;;;;;;
2020/02/25 01:50:53;;;;;;;2.2;1.6;;;;;;;;;;;;;
2020/02/25 01:53:25;;;;;;;2.5;1.7;;;;;;;;;;;;;
2020/02/25 01:55:57;;;;;;;2.1;1.8;;;;;;;;;;;;;
2020/02/25 01:58:29;;;;;;;2.3;1.8;;;;;;;;;;;;;
2020/02/25 02:01:01;;;;;;;2.5;1.6;;;;;;;;;;;;;
2020/02/25 02:03:37;;;;;;;2.7;1.8;;;;;;;;;;;;;
2020/02/25 02:06:09;;;;;;;3.5;1.7;;;;;;;;;;;;;
2020/02/25 02:08:43;;;;;;;1.8;1.6;;;;;;;;;;;;;
2020/02/25 02:11:16;;;;;;;2.2;1.5;;;;;;;;;;;;;
2020/02/25 02:13:49;;;;;;;2.1;1.3;;;;;;;;;;;;;
2020/02/25 02:16:21;;;;;;;1.6;1.5;;;;;;;;;;;;;
2020/02/25 02:18:53;;;;;;;1.4;1.2;;;;;;;;;;;;;
2020/02/25 02:21:25;;;;;;;1.9;1.5;;;;;;;;;;;;;
2020/02/25 02:23:58;;;;;;;2;1.6;;;;;;;;;;;;;
2020/02/25 02:29:19;;;;;;;2.1;1.6;;;;;;;;;;;;;
2020/02/25 02:31:50;;;;;;;2.1;1.6;;;;;;;;;;;;;
2020/02/25 02:34:22;;;;;;;2.6;1.4;;;;;;;;;;;;;
2020/02/25 02:36:55;;;;;;;1.9;1.3;;;;;;;;;;;;;
2020/02/25 02:39:26;;;;;;;2.3;1.4;;;;;;;;;;;;;
2020/02/25 02:42:06;;;;;;;1.5;1.4;;;;;;;;;;;;;
2020/02/25 02:44:39;;;;;;;1.9;1.4;;;;;;;;;;;;;
2020/02/25 02:47:11;;;;;;;1.7;1.3;;;;;;;;;;;;;
2020/02/25 02:49:46;;;;;;;1.7;1.4;;;;;;;;;;;;;
2020/02/25 02:52:23;;;;;;;1.9;1.3;;;;;;;;;;;;;
2020/02/25 02:54:56;;;;;;;1.8;1.4;;;;;;;;;;;;;
2020/02/25 02:57:28;;;;;;;1.8;1.4;;;;;;;;;;;;;
2020/02/25 03:00:00;;;;;;;1.8;1.3;;;;;;;;;;;;;
2020/02/25 03:02:37;;;;;;;2;1.4;;;;;;;;;;;;;
2020/02/25 03:05:09;;;;;;;2.3;1.7;;;;;;;;;;;;;
2020/02/25 03:07:41;;;;;;;1.7;1.6;;;;;;;;;;;;;
2020/02/25 03:10:14;;;;;;;1.8;1.2;;;;;;;;;;;;;
2020/02/25 03:12:46;;;;;;;2.2;1.7;;;;;;;;;;;;;
2020/02/25 03:15:18;;;;;;;1.8;1.4;;;;;;;;;;;;;
2020/02/25 03:17:51;;;;;;;1.9;1.7;;;;;;;;;;;;;
2020/02/25 03:20:23;;;;;;;2.6;1.6;;;;;;;;;;;;;
2020/02/25 03:22:54;;;;;;;1.9;1.6;;;;;;;;;;;;;
2020/02/25 03:25:26;;;;;;;2;1.4;;;;;;;;;;;;;
2020/02/25 03:27:58;;;;;;;1.8;1.5;;;;;;;;;;;;;
2020/02/25 03:30:30;;;;;;;1.4;1.3;;;;;;;;;;;;;
2020/02/25 03:33:02;;;;;;;1.6;1.4;;;;;;;;;;;;;
2020/02/25 03:35:34;;;;;;;1.6;1.4;;;;;;;;;;;;;
2020/02/25 03:38:07;;;;;;;1.8;1.5;;;;;;;;;;;;;
2020/02/25 03:40:39;;;;;;;2;1.4;;;;;;;;;;;;;
2020/02/25 03:43:11;;;;;;;2.1;1.7;;;;;;;;;;;;;
2020/02/25 03:45:43;;;;;;;1.8;1.4;;;;;;;;;;;;;
2020/02/25 03:48:16;;;;;;;1.6;1.4;;;;;;;;;;;;;
2020/02/25 03:50:46;;;;;;;2.5;1.6;;;;;;;;;;;;;
2020/02/25 03:53:18;;;;;;;1.8;1.6;;;;;;;;;;;;;
2020/02/25 03:55:50;;;;;;;3.3;1.8;;;;;;;;;;;;;
2020/02/25 03:58:22;;;;;;;2.3;1.6;;;;;;;;;;;;;
2020/02/25 04:05:23;;;;;;;1.7;1.6;;;;;;;;;;;;;
2020/02/25 04:07:56;;;;;;;2.2;1.5;;;;;;;;;;;;;
2020/02/25 04:10:28;;;;;;;2.8;1.7;;;;;;;;;;;;;
2020/02/25 04:13:01;;;;;;;2.3;1.7;;;;;;;;;;;;;
2020/02/25 04:15:33;;;;;;;2.8;1.8;;;;;;;;;;;;;
2020/02/25 04:18:06;;;;;;;2;1.8;;;;;;;;;;;;;
2020/02/25 04:20:38;;;;;;;3.2;1.8;;;;;;;;;;;;;
2020/02/25 04:23:11;;;;;;;3.9;1.6;;;;;;;;;;;;;
2020/02/25 04:25:43;;;;;;;2.3;1.7;;;;;;;;;;;;;
2020/02/25 04:28:15;;;;;;;2.3;1.7;;;;;;;;;;;;;
2020/02/25 04:30:48;;;;;;;2.6;1.6;;;;;;;;;;;;;
2020/02/25 04:33:21;;;;;;;1.9;1.7;;;;;;;;;;;;;
2020/02/25 04:35:54;;;;;;;4.9;1.7;;;;;;;;;;;;;
2020/02/25 04:38:26;;;;;;;2.2;1.7;;;;;;;;;;;;;
2020/02/25 04:40:58;;;;;;;3.2;1.7;;;;;;;;;;;;;
2020/02/25 04:43:30;;;;;;;2.4;1.6;;;;;;;;;;;;;
2020/02/25 04:46:02;;;;;;;2.9;1.8;;;;;;;;;;;;;
2020/02/25 04:48:34;;;;;;;1.7;1.5;;;;;;;;;;;;;
2020/02/25 04:51:06;;;;;;;2.4;1.8;;;;;;;;;;;;;
2020/02/25 04:53:39;;;;;;;2.3;1.8;;;;;;;;;;;;;
2020/02/25 04:56:11;;;;;;;3.9;1.9;;;;;;;;;;;;;
2020/02/25 04:58:43;;;;;;;4.7;1.9;;;;;;;;;;;;;
2020/02/25 05:01:15;;;;;;;2.3;1.7;;;;;;;;;;;;;
2020/02/25 05:03:48;;;;;;;2.7;1.7;;;;;;;;;;;;;
2020/02/25 05:06:20;;;;;;;2.1;1.9;;;;;;;;;;;;;
2020/02/25 05:08:52;;;;;;;4;1.7;;;;;;;;;;;;;
2020/02/25 05:11:24;;;;;;;2.5;1.8;;;;;;;;;;;;;
2020/02/25 05:13:56;;;;;;;3.3;1.9;;;;;;;;;;;;;
2020/02/25 05:16:28;;;;;;;3.3;1.8;;;;;;;;;;;;;
2020/02/25 05:18:59;;;;;;;1.9;1.7;;;;;;;;;;;;;
2020/02/25 05:21:31;;;;;;;2.2;1.6;;;;;;;;;;;;;
2020/02/25 05:24:03;;;;;;;2.1;1.8;;;;;;;;;;;;;
2020/02/25 05:26:35;;;;;;;2;1.8;;;;;;;;;;;;;
2020/02/25 05:29:07;;;;;;;3.7;1.7;;;;;;;;;;;;;
2020/02/25 05:31:39;;;;;;;2.1;1.7;;;;;;;;;;;;;
2020/02/25 05:34:11;;;;;;;2.1;1.6;;;;;;;;;;;;;
2020/02/25 05:36:42;;;;;;;2.9;1.7;;;;;;;;;;;;;
2020/02/25 05:39:14;;;;;;;2.2;1.6;;;;;;;;;;;;;
2020/02/25 05:41:48;;;;;;;2.2;1.7;;;;;;;;;;;;;
2020/02/25 05:44:20;;;;;;;2.2;1.7;;;;;;;;;;;;;
2020/02/25 05:46:51;;;;;;;2.2;1.6;;;;;;;;;;;;;
2020/02/25 05:49:23;;;;;;;2.9;1.8;;;;;;;;;;;;;
2020/02/25 05:51:55;;;;;;;2.3;1.9;;;;;;;;;;;;;
2020/02/25 05:54:27;;;;;;;4.6;1.8;;;;;;;;;;;;;
2020/02/25 05:57:00;;;;;;;3;1.7;;;;;;;;;;;;;
2020/02/25 05:59:32;;;;;;;2.7;1.7;;;;;;;;;;;;;
2020/02/25 06:02:04;;;;;;;2.1;1.8;;;;;;;;;;;;;
2020/02/25 06:04:34;;;;;;;2.3;2;;;;;;;;;;;;;
2020/02/25 06:07:06;;;;;;;2.6;1.9;;;;;;;;;;;;;
2020/02/25 06:09:38;;;;;;;1.7;1.6;;;;;;;;;;;;;
2020/02/25 06:12:10;;;;;;;2.1;1.9;;;;;;;;;;;;;
2020/02/25 06:14:42;;;;;;;3.1;1.9;;;;;;;;;;;;;
2020/02/25 06:17:12;;;;;;;2.5;1.8;;;;;;;;;;;;;
2020/02/25 06:19:45;;;;;;;2.7;2.1;;;;;;;;;;;;;
2020/02/25 06:22:17;;;;;;;4.3;2.3;;;;;;;;;;;;;
2020/02/25 06:24:49;;;;;;;5.2;2.2;;;;;;;;;;;;;
2020/02/25 06:27:21;;;;;;;5.6;2.3;;;;;;;;;;;;;
2020/02/25 06:29:53;;;;;;;2.9;2;;;;;;;;;;;;;
2020/02/25 06:32:24;;;;;;;3.3;2;;;;;;;;;;;;;
2020/02/25 06:34:56;;;;;;;3.7;2.2;;;;;;;;;;;;;
2020/02/25 06:37:28;;;;;;;3.4;2;;;;;;;;;;;;;
2020/02/25 06:40:00;;;;;;;2.6;1.8;;;;;;;;;;;;;
2020/02/25 06:42:32;;;;;;;2.7;2;;;;;;;;;;;;;
2020/02/25 06:45:04;;;;;;;2.7;2;;;;;;;;;;;;;
2020/02/25 06:47:37;;;;;;;2.9;2;;;;;;;;;;;;;
2020/02/25 06:50:09;;;;;;;2.8;2.1;;;;;;;;;;;;;
2020/02/25 06:52:42;;;;;;;3.1;2;;;;;;;;;;;;;
2020/02/25 06:55:14;;;;;;;2.9;2.2;;;;;;;;;;;;;
2020/02/25 06:57:46;;;;;;;3.3;2.3;;;;;;;;;;;;;
2020/02/25 07:00:17;;;;;;;2.9;2.1;;;;;;;;;;;;;
2020/02/25 07:02:50;;;;;;;4.1;2.1;;;;;;;;;;;;;
2020/02/25 07:05:22;;;;;;;3;2;;;;;;;;;;;;;
2020/02/25 07:07:54;;;;;;;3.6;2.4;;;;;;;;;;;;;
2020/02/25 07:10:26;;;;;;;3.6;2.1;;;;;;;;;;;;;
2020/02/25 07:12:57;;;;;;;3.6;2.4;;;;;;;;;;;;;
2020/02/25 07:15:29;;;;;;;3.9;2.4;;;;;;;;;;;;;
2020/02/25 07:18:01;;;;;;;2.7;2.3;;;;;;;;;;;;;
2020/02/25 07:20:51;;;;;;;4.6;2.4;;;;;;;;;;;;;
2020/02/25 07:23:30;;;;;;;5;2.5;;;;;;;;;;;;;
2020/02/25 07:26:39;;;;;;;4.9;2.6;;;;;;;;;;;;;
2020/02/25 07:28:33;;;;;;;4.6;2.4;;;;;;;;;;;;;
2020/02/25 07:31:05;;;;;;;3.6;2.3;;;;;;;;;;;;;
2020/02/25 07:33:37;;;;;;;3.7;2.6;;;;;;;;;;;;;
2020/02/25 07:36:09;;;;;;;3;2.4;;;;;;;;;;;;;
2020/02/25 07:38:41;;;;;;;3.7;2.6;;;;;;;;;;;;;
2020/02/25 07:41:21;;;;;;;4;2.3;;;;;;;;;;;;;
2020/02/25 07:43:56;;;;;;;3.7;2.5;;;;;;;;;;;;;
2020/02/25 07:46:27;;;;;;;5.7;3.4;;;;;;;;;;;;;
2020/02/25 07:48:59;;;;;;;4.5;2.9;;;;;;;;;;;;;
2020/02/25 07:51:31;;;;;;;4.4;2.9;;;;;;;;;;;;;
2020/02/25 07:54:02;;;;;;;3.6;2.5;;;;;;;;;;;;;
2020/02/25 07:56:34;;;;;;;4.6;2.8;;;;;;;;;;;;;
2020/02/25 07:59:06;;;;;;;3.6;2.3;;;;;;;;;;;;;
2020/02/25 08:01:39;;;;;;;3.4;2.5;;;;;;;;;;;;;
2020/02/25 08:04:12;;;;;;;3.9;2.6;;;;;;;;;;;;;
2020/02/25 08:06:45;;;;;;;3.9;2.9;;;;;;;;;;;;;
2020/02/25 08:09:17;;;;;;;3.9;2.8;;;;;;;;;;;;;
2020/02/25 08:11:49;;;;;;;4.1;2.7;;;;;;;;;;;;;
2020/02/25 08:14:22;;;;;;;3.4;2.8;;;;;;;;;;;;;
2020/02/25 08:16:53;;;;;;;5.2;2.6;;;;;;;;;;;;;
2020/02/25 08:19:25;;;;;;;4.1;2.7;;;;;;;;;;;;;
2020/02/25 08:21:57;;;;;;;2.8;2.4;;;;;;;;;;;;;
2020/02/25 08:24:29;;;;;;;4.3;2.9;;;;;;;;;;;;;
2020/02/25 08:27:01;;;;;;;3.7;2.6;;;;;;;;;;;;;
2020/02/25 08:29:33;;;;;;;5;2.7;;;;;;;;;;;;;
2020/02/25 08:32:04;;;;;;;4;2.9;;;;;;;;;;;;;
2020/02/25 08:34:37;;;;;;;4.6;2.8;;;;;;;;;;;;;
2020/02/25 08:37:09;;;;;;;3.3;2.8;;;;;;;;;;;;;
2020/02/25 08:39:41;;;;;;;3.1;2.4;;;;;;;;;;;;;
2020/02/25 08:42:14;;;;;;;3.4;2.8;;;;;;;;;;;;;
2020/02/25 08:44:46;;;;;;;3.6;2.5;;;;;;;;;;;;;
2020/02/25 08:47:18;;;;;;;4.2;2.7;;;;;;;;;;;;;
2020/02/25 08:49:49;;;;;;;5.9;2.8;;;;;;;;;;;;;
2020/02/25 08:52:20;;;;;;;4.2;2.5;;;;;;;;;;;;;
2020/02/25 08:54:52;;;;;;;3;2.5;;;;;;;;;;;;;
2020/02/25 08:57:25;;;;;;;4.5;2.8;;;;;;;;;;;;;
2020/02/25 08:59:57;;;;;;;3.6;2.7;;;;;;;;;;;;;
2020/02/25 09:02:31;;;;;;;2.9;2.6;;;;;;;;;;;;;
2020/02/25 09:05:03;;;;;;;5.3;3;;;;;;;;;;;;;
2020/02/25 09:07:35;;;;;;;3.3;2.6;;;;;;;;;;;;;
2020/02/25 09:10:07;;;;;;;4.3;2.7;;;;;;;;;;;;;
2020/02/25 09:12:39;;;;;;;4.8;2.8;;;;;;;;;;;;;
2020/02/25 09:15:10;;;;;;;3.4;2.7;;;;;;;;;;;;;
2020/02/25 09:17:42;;;;;;;4.2;2.7;;;;;;;;;;;;;
2020/02/25 09:20:14;;;;;;;3.9;2.9;;;;;;;;;;;;;
2020/02/25 09:22:46;;;;;;;4.4;3.1;;;;;;;;;;;;;
2020/02/25 09:25:18;;;;;;;4.2;2.8;;;;;;;;;;;;;
2020/02/25 09:27:50;;;;;;;4.2;2.8;;;;;;;;;;;;;
2020/02/25 09:30:22;;;;;;;3.9;2.7;;;;;;;;;;;;;
2020/02/25 09:32:53;;;;;;;4.3;2.8;;;;;;;;;;;;;
2020/02/25 09:35:25;;;;;;;4.6;2.9;;;;;;;;;;;;;
2020/02/25 09:37:57;;;;;;;3.3;2.8;;;;;;;;;;;;;
2020/02/25 09:40:29;;;;;;;7;3;;;;;;;;;;;;;
2020/02/25 09:43:05;;;;;;;4.9;3.2;;;;;;;;;;;;;
2020/02/25 09:45:35;;;;;;;4.6;2.8;;;;;;;;;;;;;
2020/02/25 09:48:14;;;;;;;3.8;2.8;;;;;;;;;;;;;
2020/02/25 09:50:46;;;;;;;4.5;3.5;;;;;;;;;;;;;
2020/02/25 09:53:18;;;;;;;4.1;2.7;;;;;;;;;;;;;
2020/02/25 09:55:50;;;;;;;3.7;3.1;;;;;;;;;;;;;
2020/02/25 09:58:23;;;;;;;3.9;2.8;;;;;;;;;;;;;
2020/02/25 10:00:57;;;;;;;3.8;2.8;;;;;;;;;;;;;
2020/02/25 10:03:29;;;;;;;4.2;3;;;;;;;;;;;;;
2020/02/25 10:06:02;;;;;;;4.3;2.8;;;;;;;;;;;;;
2020/02/25 10:08:34;;;;;;;4.1;2.8;;;;;;;;;;;;;
2020/02/25 10:11:27;;;;;;;3.1;2.8;;;;;;;;;;;;;
2020/02/25 10:14:01;;;;;;;3.1;2.8;;;;;;;;;;;;;
2020/02/25 10:16:33;;;;;;;5.6;2.8;;;;;;;;;;;;;
2020/02/25 10:19:10;;;;;;;3.8;2.6;;;;;;;;;;;;;
2020/02/25 10:21:43;;;;;;;3.8;2.9;;;;;;;;;;;;;
2020/02/25 10:24:15;;;;;;;4.4;3;;;;;;;;;;;;;
2020/02/25 10:26:48;;;;;;;3.5;2.8;;;;;;;;;;;;;
2020/02/25 10:29:20;;;;;;;3.8;2.8;;;;;;;;;;;;;
2020/02/25 10:31:52;;;;;;;3.4;2.9;;;;;;;;;;;;;
2020/02/25 10:34:24;;;;;;;4.7;2.9;;;;;;;;;;;;;
2020/02/25 10:36:56;;;;;;;4;3.1;;;;;;;;;;;;;
2020/02/25 10:39:28;;;;;;;3.1;2.8;;;;;;;;;;;;;
2020/02/25 10:42:07;;;;;;;3.4;2.8;;;;;;;;;;;;;
2020/02/25 10:44:40;;;;;;;4.1;3.1;;;;;;;;;;;;;
2020/02/25 10:47:14;;;;;;;6.4;3.4;;;;;;;;;;;;;
2020/02/25 10:49:46;;;;;;;3.5;3.1;;;;;;;;;;;;;
2020/02/25 10:52:18;;;;;;;5.1;3.5;;;;;;;;;;;;;
2020/02/25 10:54:50;;;;;;;5.3;4.6;;;;;;;;;;;;;
2020/02/25 10:57:22;;;;;;;3.5;2.7;;;;;;;;;;;;;
2020/02/25 10:59:54;;;;;;;4.2;3;;;;;;;;;;;;;
2020/02/25 11:02:45;;;;;;;3.9;2.9;;;;;;;;;;;;;
2020/02/25 11:05:20;;;;;;;3.6;3;;;;;;;;;;;;;
2020/02/25 11:07:53;;;;;;;3.7;3.3;;;;;;;;;;;;;
2020/02/25 11:10:29;;;;;;;3.5;2.9;;;;;;;;;;;;;
2020/02/25 11:13:02;;;;;;;3.6;2.9;;;;;;;;;;;;;
2020/02/25 11:15:35;;;;;;;3.9;3;;;;;;;;;;;;;
2020/02/25 11:18:06;;;;;;;3.8;2.7;;;;;;;;;;;;;
2020/02/25 11:20:38;;;;;;;4;2.8;;;;;;;;;;;;;
2020/02/25 11:23:10;;;;;;;4.9;3.2;;;;;;;;;;;;;
2020/02/25 11:25:43;;;;;;;3.6;2.8;;;;;;;;;;;;;
2020/02/25 11:28:15;;;;;;;3.6;2.8;;;;;;;;;;;;;
2020/02/25 11:30:46;;;;;;;3.5;2.4;;;;;;;;;;;;;
2020/02/25 11:33:19;;;;;;;3;2.6;;;;;;;;;;;;;
2020/02/25 11:35:51;;;;;;;3.5;2.4;;;;;;;;;;;;;
2020/02/25 11:38:23;;;;;;;3.3;2.5;;;;;;;;;;;;;
2020/02/25 11:41:00;;;;;;;3.6;2.4;;;;;;;;;;;;;
2020/02/25 11:43:32;;;;;;;3;2.4;;;;;;;;;;;;;
2020/02/25 11:46:04;;;;;;;3;2.1;;;;;;;;;;;;;
2020/02/25 11:48:35;;;;;;;2.3;2.1;;;;;;;;;;;;;
2020/02/25 11:51:07;;;;;;;3.2;2.3;;;;;;;;;;;;;
2020/02/25 11:53:38;;;;;;;3.8;2.1;;;;;;;;;;;;;
2020/02/25 11:56:10;;;;;;;2.3;2;;;;;;;;;;;;;
2020/02/25 11:58:42;;;;;;;4;2.3;;;;;;;;;;;;;
2020/02/25 12:01:13;;;;;;;2.5;1.5;;;;;;;;;;;;;
2020/02/25 12:03:45;;;;;;;1.5;1.4;;;;;;;;;;;;;
2020/02/25 12:06:18;;;;;;;1.7;1.3;;;;;;;;;;;;;
2020/02/25 12:08:49;;;;;;;1.8;1.5;;;;;;;;;;;;;
2020/02/25 12:11:35;;;;;;;1.8;1.3;;;;;;;;;;;;;
2020/02/25 12:14:07;;;;;;;1.8;1.3;;;;;;;;;;;;;
2020/02/25 12:16:38;;;;;;;1.6;1.4;;;;;;;;;;;;;
2020/02/25 12:19:11;;;;;;;2.2;1.3;;;;;;;;;;;;;
2020/02/25 12:21:42;;;;;;;1.4;1;;;;;;;;;;;;;
2020/02/25 12:24:16;;;;;;;1.5;1.3;;;;;;;;;;;;;
2020/02/25 12:26:49;;;;;;;1.7;1.3;;;;;;;;;;;;;
2020/02/25 12:29:23;;;;;;;1.6;1.2;;;;;;;;;;;;;
2020/02/25 12:32:00;;;;;;;1.2;1;;;;;;;;;;;;;
2020/02/25 12:34:31;;;;;;;1.3;1.1;;;;;;;;;;;;;
2020/02/25 12:37:04;;;;;;;1.9;1;;;;;;;;;;;;;
2020/02/25 12:39:36;;;;;;;1.2;1.1;;;;;;;;;;;;;
2020/02/25 12:42:27;;;;;;;1.3;0.9;;;;;;;;;;;;;
2020/02/25 12:45:09;;;;;;;1.2;1.1;;;;;;;;;;;;;
2020/02/25 12:47:41;;;;;;;1.1;1;;;;;;;;;;;;;
2020/02/25 12:50:14;;;;;;;1.1;1;;;;;;;;;;;;;
2020/02/25 12:52:48;;;;;;;1.2;0.9;;;;;;;;;;;;;
2020/02/25 12:55:19;;;;;;;0.8;0.8;;;;;;;;;;;;;
2020/02/25 12:57:51;;;;;;;1.3;1;;;;;;;;;;;;;
